Fowlstown, Georgia
Current Conditions -  °F | °C
As of 10:15 AM on Sunday 21 Dec 2014 (Local Time) from KBGE Reporting Station
Haze Haze  
Wind Chill: 55°   Ceiling: 700
Heat Index: 55°   Visibility: 5mi
Dew Point: 54°   Wind: 10mph
Humidity: 94%   Direction: 60°ENE
Pressure: 30.13"   Gusts: NA
Location:  30.8°N, 84.55°W
Report Text: KBGE 211515Z AUTO 06009KT 5SM BR OVC007 13/12 A3013 RMK AO2
Loading
Personal Weather Stations






























Interactive Weather Map New forecast layout! Learn more

10-Day Weather Forecast

Advertisements
Track Severe Weather on mobile